Time;durP1;ratioP1;P1;durP2;ratioP2;P2;SDS_P1;SDS_P2;PMS_P1;PMS_P2;Temp;Humidity;BMP_temperature;BMP_pressure;BME280_temperature;BME280_humidity;BME280_pressure;Samples;Min_cycle;Max_cycle;Signal;HPM_P1;HPM_P2
2021/07/13 00:00:46;;;;;;;2.60;2.40;;;20.50;99.90;;;;;;5033422;28;20179;-76
2021/07/13 00:03:12;;;;;;;2.53;2.10;;;20.50;99.90;;;;;;5033526;28;20571;-76
2021/07/13 00:05:40;;;;;;;2.30;2.10;;;20.50;99.90;;;;;;5015523;28;20181;-75
2021/07/13 00:08:06;;;;;;;3.47;2.23;;;20.30;99.90;;;;;;5031605;28;20221;-76
2021/07/13 00:10:39;;;;;;;2.37;2.03;;;20.30;99.90;;;;;;5032206;28;20185;-75
2021/07/13 00:13:05;;;;;;;3.20;1.93;;;20.40;99.90;;;;;;5031493;28;20226;-76
2021/07/13 00:15:34;;;;;;;1.97;1.80;;;20.30;99.90;;;;;;5031907;28;20259;-76
2021/07/13 00:18:00;;;;;;;1.70;1.60;;;20.30;99.90;;;;;;5013875;28;20692;-75
2021/07/13 00:20:26;;;;;;;2.20;1.90;;;20.30;99.90;;;;;;5013928;28;20248;-75
2021/07/13 00:22:52;;;;;;;2.97;1.70;;;20.40;99.90;;;;;;5014192;28;20234;-76
2021/07/13 00:25:19;;;;;;;2.30;1.80;;;20.40;99.90;;;;;;5016648;28;20293;-76
2021/07/13 00:27:45;;;;;;;2.17;1.80;;;20.40;99.90;;;;;;5013015;28;20238;-76
2021/07/13 00:30:13;;;;;;;2.53;2.10;;;20.30;99.90;;;;;;5029885;28;20187;-75
2021/07/13 00:32:39;;;;;;;3.67;1.70;;;20.10;99.90;;;;;;5013710;28;20293;-76
2021/07/13 00:35:05;;;;;;;1.93;1.70;;;19.90;99.90;;;;;;5031724;28;20706;-76
2021/07/13 00:37:31;;;;;;;5.23;2.30;;;19.90;99.90;;;;;;5032237;28;20182;-76
2021/07/13 00:39:57;;;;;;;7.00;3.00;;;20.00;99.90;;;;;;5057927;22;20312;-75
2021/07/13 00:42:23;;;;;;;10.23;2.77;;;20.10;99.90;;;;;;5032270;28;20167;-75
2021/07/13 00:44:48;;;;;;;5.70;3.00;;;20.00;99.90;;;;;;5032944;28;20637;-74
2021/07/13 00:47:19;;;;;;;7.87;3.73;;;19.50;99.90;;;;;;5031542;28;20681;-76
2021/07/13 00:49:45;;;;;;;7.00;3.40;;;19.20;99.90;;;;;;5031643;28;20277;-76
2021/07/13 00:52:12;;;;;;;3.37;3.10;;;18.80;99.90;;;;;;5031517;28;20171;-76
2021/07/13 00:54:39;;;;;;;5.60;3.50;;;18.80;99.90;;;;;;5032289;28;20182;-76
2021/07/13 00:57:12;;;;;;;3.77;2.70;;;19.00;99.90;;;;;;5031629;28;20231;-76
2021/07/13 00:59:39;;;;;;;4.23;2.50;;;18.90;99.90;;;;;;5011512;28;20281;-75
2021/07/13 01:02:06;;;;;;;4.47;3.00;;;18.90;99.90;;;;;;5030877;28;20198;-75
2021/07/13 01:04:34;;;;;;;3.47;2.80;;;19.00;99.90;;;;;;5029603;28;20171;-76
2021/07/13 01:07:08;;;;;;;3.33;2.70;;;19.10;99.90;;;;;;5032164;28;20586;-75
2021/07/13 01:09:37;;;;;;;4.70;2.83;;;19.10;99.90;;;;;;5022814;28;20198;-76
2021/07/13 01:12:12;;;;;;;3.03;2.30;;;19.20;99.90;;;;;;5029632;28;20224;-75
2021/07/13 01:14:55;;;;;;;4.63;2.20;;;19.00;99.90;;;;;;5030807;28;20243;-75
2021/07/13 01:17:39;;;;;;;2.80;1.87;;;18.80;99.90;;;;;;5030775;28;20228;-75
2021/07/13 01:20:27;;;;;;;3.27;1.43;;;18.90;99.90;;;;;;5011903;28;20202;-76
2021/07/13 01:23:18;;;;;;;1.83;1.30;;;18.90;99.90;;;;;;5030530;28;20954;-75
2021/07/13 01:26:08;;;;;;;4.27;1.50;;;19.00;99.90;;;;;;5029507;28;20813;-76
2021/07/13 01:28:40;;;;;;;1.33;1.03;;;19.00;99.90;;;;;;5029617;28;20194;-75
2021/07/13 01:31:10;;;;;;;2.13;1.20;;;19.00;99.90;;;;;;4993876;28;20194;-76
2021/07/13 01:33:38;;;;;;;1.67;1.30;;;19.10;99.90;;;;;;5030385;28;20248;-76
2021/07/13 01:36:16;;;;;;;2.13;1.20;;;19.10;99.90;;;;;;5030733;28;20675;-74
2021/07/13 01:38:45;;;;;;;1.80;1.20;;;19.00;99.90;;;;;;5030335;28;20544;-75
2021/07/13 01:41:16;;;;;;;2.97;1.10;;;19.00;99.90;;;;;;5013992;28;20175;-75
2021/07/13 01:43:43;;;;;;;1.50;1.20;;;18.80;99.90;;;;;;5030302;28;20171;-76
2021/07/13 01:46:12;;;;;;;2.03;1.13;;;18.80;99.90;;;;;;4989081;28;20613;-75
2021/07/13 01:48:39;;;;;;;1.50;1.20;;;18.90;99.90;;;;;;5030333;28;20190;-76
2021/07/13 01:51:07;;;;;;;1.07;0.97;;;18.90;99.90;;;;;;5030700;28;20300;-74
2021/07/13 01:53:33;;;;;;;1.67;1.20;;;19.00;99.90;;;;;;5018943;28;20665;-76
2021/07/13 01:56:01;;;;;;;1.53;1.13;;;19.00;99.90;;;;;;5028399;28;20174;-77
2021/07/13 01:58:29;;;;;;;1.33;1.10;;;18.80;99.90;;;;;;5028581;28;20178;-78
2021/07/13 02:01:04;;;;;;;0.80;0.80;;;18.60;99.90;;;;;;5029234;28;20209;-76
2021/07/13 02:03:30;;;;;;;1.73;0.80;;;18.50;99.90;;;;;;5030127;28;20209;-77
2021/07/13 02:05:57;;;;;;;1.87;0.90;;;18.40;99.90;;;;;;5012543;28;20209;-76
2021/07/13 02:08:24;;;;;;;1.27;0.90;;;18.40;99.90;;;;;;5011973;28;20190;-76
2021/07/13 02:10:50;;;;;;;1.40;0.73;;;18.40;99.90;;;;;;5029387;28;20614;-77
2021/07/13 02:13:20;;;;;;;1.40;0.80;;;18.50;99.90;;;;;;5012480;28;20198;-76
2021/07/13 02:15:46;;;;;;;0.97;0.70;;;18.60;99.90;;;;;;5013966;28;20181;-76
2021/07/13 02:18:13;;;;;;;1.33;0.90;;;18.60;99.90;;;;;;5030255;28;20273;-76
2021/07/13 02:20:39;;;;;;;2.00;0.80;;;18.60;99.90;;;;;;5012512;28;20281;-76
2021/07/13 02:23:06;;;;;;;2.10;1.23;;;18.60;99.90;;;;;;5030063;28;20277;-76
2021/07/13 02:25:33;;;;;;;2.73;1.37;;;18.60;99.90;;;;;;5029945;28;20182;-76
2021/07/13 02:28:10;;;;;;;1.60;1.20;;;18.70;99.90;;;;;;5029891;28;20190;-77
2021/07/13 02:30:39;;;;;;;1.77;1.00;;;18.80;99.90;;;;;;5029910;28;20332;-76
2021/07/13 02:33:19;;;;;;;1.67;0.90;;;18.70;99.90;;;;;;5029921;28;20182;-75
2021/07/13 02:35:58;;;;;;;1.13;0.80;;;18.60;99.90;;;;;;5033876;28;20162;-76
2021/07/13 02:38:24;;;;;;;1.13;0.73;;;18.60;99.90;;;;;;5029920;28;20177;-76
2021/07/13 02:40:51;;;;;;;1.17;0.90;;;18.60;99.90;;;;;;5011253;28;20214;-76
2021/07/13 02:43:19;;;;;;;1.00;0.80;;;18.60;99.90;;;;;;5029933;28;20182;-75
2021/07/13 02:45:44;;;;;;;3.50;1.10;;;18.60;99.90;;;;;;5011944;28;20178;-76
2021/07/13 02:48:12;;;;;;;1.13;0.73;;;18.60;99.90;;;;;;5029802;28;20202;-76
2021/07/13 02:50:39;;;;;;;1.13;0.80;;;18.50;99.90;;;;;;5029544;28;20617;-76
2021/07/13 02:53:07;;;;;;;2.07;0.90;;;18.40;99.90;;;;;;5013128;28;20316;-74
2021/07/13 02:55:34;;;;;;;1.33;0.70;;;18.40;99.90;;;;;;5012198;28;20182;-76
2021/07/13 02:58:02;;;;;;;1.93;0.80;;;18.40;99.90;;;;;;5029797;28;20177;-75
2021/07/13 03:00:28;;;;;;;1.83;0.80;;;18.30;99.90;;;;;;5030213;28;20280;-74
2021/07/13 03:02:54;;;;;;;2.33;0.90;;;18.20;99.90;;;;;;5013134;28;20208;-75
2021/07/13 03:05:26;;;;;;;0.83;0.70;;;18.10;99.90;;;;;;4998679;28;20641;-74
2021/07/13 03:07:52;;;;;;;2.07;0.80;;;18.00;99.90;;;;;;5029558;28;20195;-74
2021/07/13 03:10:25;;;;;;;1.60;1.03;;;18.10;99.90;;;;;;5027097;28;20198;-76
2021/07/13 03:12:53;;;;;;;0.77;0.77;;;18.10;99.90;;;;;;5029629;28;20256;-75
2021/07/13 03:15:30;;;;;;;0.70;0.53;;;18.00;99.90;;;;;;5011761;28;20182;-76
2021/07/13 03:17:57;;;;;;;1.67;0.90;;;17.80;99.90;;;;;;5029538;28;20180;-76
2021/07/13 03:20:23;;;;;;;2.27;0.97;;;17.70;99.90;;;;;;5029620;28;20191;-74
2021/07/13 03:22:51;;;;;;;1.43;0.90;;;17.70;99.90;;;;;;5034138;28;20217;-76
2021/07/13 03:25:24;;;;;;;0.70;0.70;;;17.70;99.90;;;;;;5033840;28;20175;-75
2021/07/13 03:27:51;;;;;;;0.97;0.80;;;17.70;99.90;;;;;;5033158;28;20198;-73
2021/07/13 03:30:18;;;;;;;1.03;0.70;;;17.70;99.90;;;;;;5032896;28;20556;-75
2021/07/13 03:32:45;;;;;;;3.43;0.90;;;17.70;99.90;;;;;;5033020;28;20174;-76
2021/07/13 03:35:11;;;;;;;1.20;0.90;;;17.70;99.90;;;;;;5015117;28;20258;-75
2021/07/13 03:37:38;;;;;;;1.10;0.90;;;17.60;99.90;;;;;;5034262;28;20186;-75
2021/07/13 03:40:06;;;;;;;3.70;1.40;;;17.60;99.90;;;;;;5034260;28;20217;-75
2021/07/13 03:42:32;;;;;;;1.50;1.03;;;17.50;99.90;;;;;;5034510;28;20185;-72
2021/07/13 03:44:58;;;;;;;1.50;1.10;;;17.50;99.90;;;;;;5014839;28;20190;-75
2021/07/13 03:47:24;;;;;;;2.00;0.97;;;17.60;99.90;;;;;;5032924;28;20201;-76
2021/07/13 03:49:50;;;;;;;1.87;1.33;;;17.60;99.90;;;;;;5032981;28;20190;-77
2021/07/13 03:52:17;;;;;;;2.73;1.30;;;17.70;99.90;;;;;;5032234;28;20657;-76
2021/07/13 03:54:44;;;;;;;1.27;1.13;;;17.50;99.90;;;;;;5034230;28;20579;-77
2021/07/13 03:57:09;;;;;;;3.60;1.50;;;17.30;99.90;;;;;;5034734;28;20176;-75
2021/07/13 03:59:35;;;;;;;3.80;1.10;;;17.50;99.90;;;;;;5016812;28;20225;-75
2021/07/13 04:02:01;;;;;;;4.20;1.40;;;17.50;99.90;;;;;;5031463;28;20186;-76
2021/07/13 04:04:26;;;;;;;4.50;1.53;;;17.30;99.90;;;;;;5032891;28;20265;-75
2021/07/13 04:06:52;;;;;;;2.63;1.50;;;17.20;99.90;;;;;;5016036;28;20518;-76
2021/07/13 04:09:18;;;;;;;2.03;1.50;;;17.20;99.90;;;;;;5032333;28;20265;-75
2021/07/13 04:11:44;;;;;;;3.40;1.60;;;17.10;99.90;;;;;;5015094;28;20182;-76
2021/07/13 04:14:11;;;;;;;2.30;1.50;;;17.10;99.90;;;;;;5034263;28;20649;-76
2021/07/13 04:16:36;;;;;;;2.57;1.43;;;17.00;99.90;;;;;;5034588;28;20173;-74
2021/07/13 04:19:03;;;;;;;2.83;1.53;;;17.00;99.90;;;;;;5032731;28;20194;-77
2021/07/13 04:21:29;;;;;;;2.70;1.93;;;17.10;99.90;;;;;;5034320;28;20182;-76
2021/07/13 04:23:55;;;;;;;2.77;1.40;;;17.30;99.90;;;;;;5034312;28;20190;-77
2021/07/13 04:26:22;;;;;;;1.13;0.90;;;17.20;99.90;;;;;;5016611;28;20232;-76
2021/07/13 04:28:47;;;;;;;1.00;0.83;;;17.10;99.90;;;;;;5034758;28;20281;-75
2021/07/13 04:31:13;;;;;;;1.90;1.07;;;17.10;99.90;;;;;;5016491;28;20268;-76
2021/07/13 04:33:39;;;;;;;1.07;0.97;;;17.00;99.90;;;;;;5033424;28;20192;-76
2021/07/13 04:36:05;;;;;;;0.83;0.83;;;17.10;99.90;;;;;;5034093;28;20178;-76
2021/07/13 04:38:30;;;;;;;0.73;0.70;;;17.00;99.90;;;;;;5034107;28;20185;-76
2021/07/13 04:40:56;;;;;;;1.20;0.50;;;17.10;99.90;;;;;;5033772;28;20206;-77
2021/07/13 04:43:22;;;;;;;1.67;0.70;;;17.10;99.90;;;;;;5016295;28;20273;-76
2021/07/13 04:45:48;;;;;;;1.93;0.80;;;17.10;99.90;;;;;;5016100;28;20386;-76
2021/07/13 04:48:14;;;;;;;2.10;0.90;;;17.10;99.90;;;;;;5033845;28;20202;-75
2021/07/13 04:50:39;;;;;;;2.77;1.00;;;17.10;99.90;;;;;;5033536;28;20216;-74
2021/07/13 04:53:05;;;;;;;1.40;0.70;;;17.00;99.90;;;;;;5016608;28;20228;-74
2021/07/13 04:55:31;;;;;;;1.73;0.50;;;16.90;99.90;;;;;;5032147;28;20213;-77
2021/07/13 04:57:57;;;;;;;1.40;0.33;;;16.60;99.90;;;;;;5035392;28;20197;-82
2021/07/13 05:00:23;;;;;;;0.73;0.30;;;16.50;99.90;;;;;;5037051;28;20205;-82
2021/07/13 05:02:48;;;;;;;2.07;0.57;;;16.40;99.90;;;;;;5019738;28;20210;-82
2021/07/13 05:05:14;;;;;;;0.63;0.47;;;16.40;99.90;;;;;;5020184;28;20182;-82
2021/07/13 05:07:44;;;;;;;4.43;2.40;;;16.40;99.90;;;;;;5018702;28;20198;-82
2021/07/13 05:10:12;;;;;;;1.13;0.40;;;16.50;99.90;;;;;;5019987;28;20206;-82
2021/07/13 05:12:39;;;;;;;1.30;0.20;;;16.40;99.90;;;;;;5041053;28;20167;-82
2021/07/13 05:15:10;;;;;;;1.13;0.20;;;16.40;99.90;;;;;;5023442;28;20177;-83
2021/07/13 05:17:36;;;;;;;0.20;0.13;;;16.40;99.90;;;;;;5038151;28;20180;-83
2021/07/13 05:20:12;;;;;;;0.93;0.20;;;16.30;99.90;;;;;;5019036;28;20244;-83
2021/07/13 05:22:38;;;;;;;0.23;0.20;;;;;;;;;;5019274;28;20189;-81
2021/07/13 05:25:06;;;;;;;0.83;0.40;;;16.20;99.90;;;;;;5036494;28;20663;-82
2021/07/13 05:27:35;;;;;;;0.53;0.20;;;16.20;99.90;;;;;;5017348;28;20612;-81
2021/07/13 05:30:01;;;;;;;0.93;0.20;;;15.90;99.90;;;;;;5034962;28;20565;-81
2021/07/13 05:32:28;;;;;;;0.20;0.10;;;15.70;99.90;;;;;;5035958;28;20175;-82
2021/07/13 05:34:53;;;;;;;0.20;0.20;;;15.50;99.90;;;;;;5034775;28;20190;-82
2021/07/13 05:37:19;;;;;;;0.17;0.10;;;15.50;99.90;;;;;;5035773;28;20175;-82
2021/07/13 05:39:45;;;;;;;0.20;0.10;;;15.30;99.90;;;;;;5035982;28;20209;-82
2021/07/13 05:42:10;;;;;;;0.60;0.27;;;15.30;99.90;;;;;;5018142;28;20178;-82
2021/07/13 05:44:36;;;;;;;1.03;0.53;;;15.30;99.90;;;;;;5034841;28;20565;-82
2021/07/13 05:47:02;;;;;;;0.70;0.40;;;15.40;99.90;;;;;;5035306;28;20216;-83
2021/07/13 05:49:28;;;;;;;0.43;0.30;;;15.40;99.90;;;;;;5035328;28;20206;-82
2021/07/13 05:51:53;;;;;;;1.17;0.30;;;15.40;99.90;;;;;;5034573;28;20190;-82
2021/07/13 05:54:19;;;;;;;1.23;0.30;;;15.30;99.90;;;;;;5035266;28;20645;-81
2021/07/13 05:56:44;;;;;;;0.83;0.10;;;15.40;99.90;;;;;;5018263;28;20182;-82
2021/07/13 05:59:10;;;;;;;0.20;0.20;;;15.30;99.90;;;;;;5034954;28;20194;-81
2021/07/13 06:01:36;;;;;;;0.40;0.40;;;15.30;99.90;;;;;;5034682;28;20632;-82
2021/07/13 06:04:01;;;;;;;1.10;0.67;;;15.20;99.90;;;;;;5016764;28;20179;-81
2021/07/13 06:06:27;;;;;;;1.57;0.60;;;15.30;99.90;;;;;;5033748;28;20252;-81
2021/07/13 06:08:53;;;;;;;0.57;0.30;;;15.30;99.90;;;;;;5016472;28;20199;-81
2021/07/13 06:11:19;;;;;;;0.60;0.30;;;15.20;99.90;;;;;;5016762;28;20197;-81
2021/07/13 06:13:44;;;;;;;1.70;0.20;;;15.10;99.90;;;;;;5034039;28;20178;-81
2021/07/13 06:16:10;;;;;;;0.27;0.20;;;15.20;99.90;;;;;;5035874;28;20186;-82
2021/07/13 06:18:36;;;;;;;0.77;0.13;;;15.20;99.90;;;;;;5016891;28;20190;-82
2021/07/13 06:21:01;;;;;;;0.10;0.10;;;15.20;99.90;;;;;;5017791;28;20190;-82
2021/07/13 06:23:27;;;;;;;0.60;0.20;;;15.10;99.90;;;;;;5033903;28;20629;-81
2021/07/13 06:25:53;;;;;;;0.63;0.30;;;15.30;99.90;;;;;;5035789;28;20176;-81
2021/07/13 06:28:18;;;;;;;0.37;0.37;;;15.50;99.90;;;;;;5034028;28;20213;-81
2021/07/13 06:30:44;;;;;;;1.03;0.30;;;15.60;99.90;;;;;;5016007;28;20206;-81
2021/07/13 06:33:09;;;;;;;2.47;0.30;;;15.60;99.90;;;;;;5033370;28;20180;-81
2021/07/13 06:35:35;;;;;;;1.07;0.30;;;15.70;99.90;;;;;;5015384;28;20671;-81
2021/07/13 06:38:02;;;;;;;1.37;0.20;;;15.60;99.90;;;;;;5034616;28;20272;-82
2021/07/13 06:40:28;;;;;;;1.90;0.40;;;15.60;99.90;;;;;;5059885;22;20616;-82
2021/07/13 06:42:54;;;;;;;0.70;0.43;;;15.30;99.90;;;;;;5038598;28;20169;-82
2021/07/13 06:45:20;;;;;;;0.70;0.30;;;15.30;99.90;;;;;;5039206;28;20529;-83
2021/07/13 06:47:48;;;;;;;0.40;0.30;;;15.40;99.90;;;;;;5051778;28;20751;-83
2021/07/13 06:50:13;;;;;;;1.47;0.33;;;15.30;99.90;;;;;;5049680;28;20194;-83
2021/07/13 06:52:39;;;;;;;1.67;0.40;;;15.30;99.90;;;;;;5021079;28;20629;-83
2021/07/13 06:55:07;;;;;;;2.43;0.23;;;15.40;99.90;;;;;;5038216;28;20185;-83
2021/07/13 06:57:33;;;;;;;1.43;1.00;;;15.50;99.90;;;;;;5040856;28;20196;-83
2021/07/13 06:59:59;;;;;;;1.27;0.60;;;15.50;99.90;;;;;;5041351;28;20663;-83
2021/07/13 07:02:27;;;;;;;0.93;0.40;;;15.60;99.90;;;;;;5041051;28;20167;-82
2021/07/13 07:04:53;;;;;;;0.30;0.30;;;15.60;99.90;;;;;;5041628;28;20661;-83
2021/07/13 07:07:19;;;;;;;0.40;0.40;;;15.70;99.90;;;;;;5040338;28;20262;-83
2021/07/13 07:09:45;;;;;;;0.90;0.40;;;15.80;99.90;;;;;;5041801;28;20218;-83
2021/07/13 07:12:10;;;;;;;1.13;0.40;;;15.70;99.90;;;;;;5042009;28;20233;-83
2021/07/13 07:14:36;;;;;;;4.27;0.53;;;15.70;99.90;;;;;;5041287;28;20209;-82
2021/07/13 07:17:02;;;;;;;0.47;0.40;;;15.80;99.90;;;;;;5040582;28;20260;-82
2021/07/13 07:19:28;;;;;;;0.40;0.40;;;15.80;99.90;;;;;;5041357;28;20257;-82
2021/07/13 07:21:53;;;;;;;0.40;0.27;;;15.70;99.90;;;;;;5041408;28;20182;-83
2021/07/13 07:24:19;;;;;;;7.37;1.20;;;15.60;99.90;;;;;;5022647;28;20637;-83
2021/07/13 07:26:44;;;;;;;2.93;0.40;;;15.60;99.90;;;;;;5022590;28;20669;-82
2021/07/13 07:29:10;;;;;;;2.20;0.50;;;15.60;99.90;;;;;;5040578;28;20284;-83
2021/07/13 07:31:36;;;;;;;0.57;0.50;;;15.60;99.90;;;;;;5022556;28;20198;-82
2021/07/13 07:34:01;;;;;;;1.10;0.33;;;15.70;99.90;;;;;;5022892;28;20685;-82
2021/07/13 07:36:27;;;;;;;2.10;0.40;;;15.60;99.90;;;;;;5041277;28;20212;-83
2021/07/13 07:38:54;;;;;;;1.70;0.50;;;15.60;99.90;;;;;;5025900;28;20180;-82
2021/07/13 07:41:20;;;;;;;0.73;0.70;;;15.60;99.90;;;;;;5038734;28;20218;-82
2021/07/13 07:43:47;;;;;;;11.07;1.20;;;15.30;99.90;;;;;;5039342;28;20184;-82
2021/07/13 07:46:12;;;;;;;3.40;1.00;;;15.20;99.90;;;;;;5038685;28;20208;-82
2021/07/13 07:48:38;;;;;;;4.97;1.00;;;15.00;99.90;;;;;;5039284;28;20202;-83
2021/07/13 07:51:03;;;;;;;1.17;0.60;;;14.90;99.90;;;;;;5021906;28;20267;-80
2021/07/13 07:53:29;;;;;;;0.70;0.70;;;14.90;99.90;;;;;;5039794;28;20177;-82
2021/07/13 07:55:56;;;;;;;1.97;0.77;;;14.80;99.90;;;;;;5021136;28;20543;-82
2021/07/13 07:58:21;;;;;;;2.03;0.90;;;14.70;99.90;;;;;;5038542;28;20182;-82
2021/07/13 08:00:47;;;;;;;18.23;2.10;;;14.50;99.90;;;;;;5020711;28;20210;-82
2021/07/13 08:03:13;;;;;;;1.70;0.70;;;14.40;99.90;;;;;;5021328;28;20274;-82
2021/07/13 08:05:40;;;;;;;14.10;2.17;;;14.40;99.90;;;;;;5039550;28;20186;-82
2021/07/13 08:08:06;;;;;;;0.90;0.87;;;14.40;99.90;;;;;;5038244;28;20195;-82
2021/07/13 08:10:32;;;;;;;2.10;0.97;;;14.40;99.90;;;;;;5038531;28;20198;-82
2021/07/13 08:12:58;;;;;;;1.10;0.87;;;;;;;;;;5039404;28;20221;-82
2021/07/13 08:15:26;;;;;;;2.93;0.90;;;14.00;99.90;;;;;;5039078;28;20175;-82
2021/07/13 08:17:52;;;;;;;1.77;0.80;;;14.10;99.90;;;;;;5036900;28;20306;-82
2021/07/13 08:20:18;;;;;;;1.53;0.77;;;14.00;99.90;;;;;;5022897;28;20210;-82
2021/07/13 08:22:46;;;;;;;0.80;0.70;;;14.10;99.90;;;;;;5040543;28;20183;-82
2021/07/13 08:25:12;;;;;;;2.90;0.80;;;14.20;99.90;;;;;;5040157;28;20176;-83
2021/07/13 08:27:38;;;;;;;4.97;0.63;;;14.10;99.90;;;;;;5040433;28;20209;-82
2021/07/13 08:30:06;;;;;;;1.83;0.90;;;14.10;99.90;;;;;;5021919;28;20199;-82
2021/07/13 08:32:31;;;;;;;0.73;0.73;;;14.10;99.90;;;;;;5038692;28;20198;-82
2021/07/13 08:34:57;;;;;;;0.40;0.40;;;14.00;99.90;;;;;;5039115;28;20653;-83
2021/07/13 08:37:25;;;;;;;2.27;0.57;;;13.90;99.90;;;;;;5039606;28;20262;-82
2021/07/13 08:39:51;;;;;;;0.37;0.37;;;13.90;99.90;;;;;;5039342;28;20233;-82
2021/07/13 08:42:17;;;;;;;0.63;0.47;;;13.90;99.90;;;;;;5022486;28;20183;-82
2021/07/13 08:44:43;;;;;;;0.80;0.40;;;13.90;99.90;;;;;;5039902;28;20174;-82
2021/07/13 08:47:14;;;;;;;2.50;0.90;;;13.90;99.90;;;;;;5021283;28;20184;-82
2021/07/13 08:49:39;;;;;;;0.63;0.40;;;13.90;99.90;;;;;;5039900;28;20194;-82
2021/07/13 08:52:05;;;;;;;0.70;0.70;;;13.80;99.90;;;;;;5021502;28;20185;-82
2021/07/13 08:54:34;;;;;;;1.80;0.70;;;13.90;99.90;;;;;;5041384;28;20201;-82
2021/07/13 08:57:00;;;;;;;1.47;0.60;;;14.00;99.90;;;;;;5043339;28;20174;-82
2021/07/13 08:59:25;;;;;;;0.60;0.50;;;14.10;99.90;;;;;;5024772;28;20205;-82
2021/07/13 09:01:51;;;;;;;0.83;0.50;;;14.00;99.90;;;;;;5026442;28;20183;-83
2021/07/13 09:04:17;;;;;;;0.93;0.70;;;14.00;99.90;;;;;;5026190;28;20584;-82
2021/07/13 09:06:54;;;;;;;1.83;0.60;;;14.20;99.90;;;;;;5042191;28;20201;-82
2021/07/13 09:09:34;;;;;;;1.97;0.80;;;14.40;99.90;;;;;;5041015;28;20265;-82
2021/07/13 09:12:07;;;;;;;1.97;0.70;;;14.40;99.90;;;;;;5023520;28;20184;-82
2021/07/13 09:14:51;;;;;;;1.43;0.60;;;14.40;99.90;;;;;;5040379;28;20234;-82
2021/07/13 09:17:43;;;;;;;4.77;0.63;;;14.30;99.90;;;;;;5022296;28;20547;-81
2021/07/13 09:20:24;;;;;;;0.70;0.70;;;14.40;99.90;;;;;;5022938;28;20252;-81
2021/07/13 09:22:59;;;;;;;1.00;0.50;;;14.40;99.90;;;;;;5038887;28;20180;-81
2021/07/13 09:25:40;;;;;;;4.30;0.90;;;14.30;99.90;;;;;;5039271;28;20262;-80
2021/07/13 09:28:16;;;;;;;2.57;1.10;;;14.40;99.90;;;;;;5036316;28;20268;-81
2021/07/13 09:31:00;;;;;;;0.80;0.60;;;14.50;99.90;;;;;;5034535;28;20194;-81
2021/07/13 09:33:28;;;;;;;1.57;0.60;;;14.40;99.90;;;;;;5018578;28;20193;-81
2021/07/13 09:36:16;;;;;;;1.57;0.60;;;14.40;99.90;;;;;;5036326;28;20205;-81
2021/07/13 09:38:54;;;;;;;1.70;0.90;;;14.40;99.90;;;;;;5036245;28;20190;-82
2021/07/13 09:41:33;;;;;;;1.00;0.80;;;14.30;99.90;;;;;;5036606;28;20696;-81
2021/07/13 09:44:05;;;;;;;1.93;0.83;;;14.20;99.90;;;;;;5035251;28;20179;-81
2021/07/13 09:46:31;;;;;;;0.87;0.60;;;14.10;99.90;;;;;;5017661;28;20664;-82
2021/07/13 09:49:07;;;;;;;1.07;0.90;;;14.00;99.90;;;;;;5017550;28;20195;-81
2021/07/13 09:51:33;;;;;;;0.53;0.53;;;14.10;99.90;;;;;;5035134;28;20236;-82
2021/07/13 09:53:58;;;;;;;0.70;0.60;;;14.20;99.90;;;;;;5017728;28;20198;-82
2021/07/13 09:56:42;;;;;;;0.70;0.60;;;14.10;99.90;;;;;;5017908;28;20181;-82
2021/07/13 09:59:07;;;;;;;0.63;0.63;;;14.20;99.90;;;;;;5018348;28;20270;-82
2021/07/13 10:01:34;;;;;;;1.17;0.90;;;14.30;99.90;;;;;;5037587;28;20714;-82
2021/07/13 10:04:02;;;;;;;0.53;0.50;;;14.50;99.90;;;;;;5036380;28;20637;-82
2021/07/13 10:06:31;;;;;;;0.93;0.70;;;14.50;99.90;;;;;;5036387;28;20183;-82
2021/07/13 10:08:59;;;;;;;0.90;0.70;;;14.50;99.90;;;;;;5036983;28;20555;-82
2021/07/13 10:11:28;;;;;;;4.17;0.87;;;14.70;99.90;;;;;;5019893;28;20222;-82
2021/07/13 10:13:53;;;;;;;0.80;0.80;;;14.70;99.90;;;;;;5037107;28;20174;-82
2021/07/13 10:16:19;;;;;;;1.07;0.50;;;14.70;99.90;;;;;;5037506;28;20177;-82
2021/07/13 10:18:45;;;;;;;0.63;0.63;;;14.60;99.90;;;;;;5019193;28;20232;-82
2021/07/13 10:21:12;;;;;;;1.40;0.47;;;14.60;99.90;;;;;;5040348;28;20202;-82
2021/07/13 10:23:38;;;;;;;0.60;0.50;;;14.60;99.90;;;;;;5038534;28;20182;-82
2021/07/13 10:26:06;;;;;;;1.00;0.50;;;14.60;99.90;;;;;;5040166;28;20185;-82
2021/07/13 10:28:33;;;;;;;0.90;0.50;;;14.60;99.90;;;;;;5021516;28;20570;-82
2021/07/13 10:30:59;;;;;;;0.83;0.60;;;14.70;99.90;;;;;;5039248;28;20784;-82
2021/07/13 10:33:37;;;;;;;1.03;0.60;;;14.70;99.90;;;;;;5020696;28;20171;-82
2021/07/13 10:36:26;;;;;;;1.53;0.60;;;14.70;99.90;;;;;;5040534;28;20194;-80
2021/07/13 10:39:25;;;;;;;1.03;0.80;;;14.80;99.90;;;;;;5039420;28;20211;-82
2021/07/13 10:41:50;;;;;;;1.57;0.60;;;14.80;99.90;;;;;;5039899;28;20209;-82
2021/07/13 10:44:42;;;;;;;0.70;0.50;;;14.90;99.90;;;;;;5038428;28;20190;-82
2021/07/13 10:47:58;;;;;;;0.60;0.60;;;14.90;99.90;;;;;;5022489;28;20216;-82
2021/07/13 10:50:27;;;;;;;0.87;0.60;;;15.00;99.90;;;;;;4979202;28;20233;-82
2021/07/13 10:53:46;;;;;;;1.57;0.70;;;14.90;99.90;;;;;;5019810;28;20574;-82
2021/07/13 10:56:30;;;;;;;0.70;0.60;;;15.10;99.90;;;;;;4956171;29;20205;-82
2021/07/13 10:58:56;;;;;;;1.17;0.90;;;15.10;99.90;;;;;;4941011;29;20273;-82
2021/07/13 11:01:33;;;;;;;2.63;0.83;;;15.00;99.90;;;;;;5005578;28;20230;-82
2021/07/13 11:04:04;;;;;;;1.07;0.60;;;15.00;99.90;;;;;;5037183;28;20186;-82
2021/07/13 11:06:42;;;;;;;1.27;0.80;;;15.20;99.90;;;;;;5020343;28;20206;-82
2021/07/13 11:09:21;;;;;;;0.90;0.70;;;15.30;99.90;;;;;;5019392;28;20571;-83
2021/07/13 11:11:47;;;;;;;0.83;0.80;;;15.20;99.90;;;;;;5020043;28;20656;-83
2021/07/13 11:14:15;;;;;;;0.70;0.70;;;15.20;99.90;;;;;;5037813;28;20650;-82
2021/07/13 11:16:43;;;;;;;2.03;1.03;;;15.30;99.90;;;;;;5020031;28;20646;-82
2021/07/13 11:19:15;;;;;;;0.73;0.60;;;15.30;99.90;;;;;;5036239;28;20190;-82
2021/07/13 11:21:44;;;;;;;1.03;0.77;;;15.20;99.90;;;;;;5037347;28;20190;-82
2021/07/13 11:24:21;;;;;;;0.80;0.60;;;15.30;99.90;;;;;;5036768;28;20178;-81
2021/07/13 11:26:49;;;;;;;0.63;0.60;;;15.30;99.90;;;;;;5019372;28;20261;-81
2021/07/13 11:29:21;;;;;;;1.57;0.80;;;15.20;99.90;;;;;;5037420;28;20183;-82
2021/07/13 11:32:00;;;;;;;1.07;0.83;;;15.20;99.90;;;;;;5037702;28;20283;-82
2021/07/13 11:34:32;;;;;;;1.40;1.00;;;15.30;99.90;;;;;;5020495;28;20174;-82
2021/07/13 11:36:58;;;;;;;1.23;0.90;;;15.20;99.90;;;;;;5037831;28;20170;-81
2021/07/13 11:39:32;;;;;;;0.90;0.67;;;15.30;99.90;;;;;;5020094;28;20233;-82
2021/07/13 11:42:05;;;;;;;0.83;0.70;;;15.30;99.90;;;;;;5036816;28;20184;-82
2021/07/13 11:44:31;;;;;;;1.20;0.70;;;15.20;99.90;;;;;;5039278;28;20177;-82
2021/07/13 11:46:56;;;;;;;1.00;0.70;;;15.30;99.90;;;;;;5022555;28;20673;-82
2021/07/13 11:49:24;;;;;;;1.47;0.70;;;15.20;99.90;;;;;;5023148;28;20661;-82
2021/07/13 11:51:49;;;;;;;1.03;1.00;;;15.20;99.90;;;;;;5039556;28;20166;-82
2021/07/13 11:54:17;;;;;;;1.10;0.77;;;15.30;99.90;;;;;;5040229;28;20544;-82
2021/07/13 11:56:48;;;;;;;1.87;0.90;;;15.40;99.90;;;;;;5021224;28;20170;-81
2021/07/13 11:59:14;;;;;;;1.53;1.00;;;15.40;99.90;;;;;;5039190;28;20235;-81
2021/07/13 12:01:40;;;;;;;1.23;0.90;;;15.40;99.90;;;;;;5018857;28;20198;-82
2021/07/13 12:04:07;;;;;;;2.10;1.07;;;15.30;99.90;;;;;;5039321;28;20350;-82
2021/07/13 12:06:38;;;;;;;2.03;0.80;;;15.20;99.90;;;;;;5039386;28;20197;-82
2021/07/13 12:09:11;;;;;;;0.60;0.50;;;15.10;99.90;;;;;;5040534;28;20567;-82
2021/07/13 12:11:40;;;;;;;2.23;0.90;;;15.00;99.90;;;;;;5040384;28;20198;-82
2021/07/13 12:14:10;;;;;;;2.50;1.03;;;15.20;99.90;;;;;;5039586;28;20549;-82
2021/07/13 12:16:36;;;;;;;0.93;0.83;;;15.30;99.90;;;;;;5039095;28;20186;-82
2021/07/13 12:19:15;;;;;;;0.90;0.70;;;15.40;99.90;;;;;;5042010;28;20183;-82
2021/07/13 12:21:55;;;;;;;1.00;0.77;;;15.40;99.90;;;;;;5028623;28;20201;-82
2021/07/13 12:24:24;;;;;;;1.00;0.90;;;15.50;99.90;;;;;;5046891;28;20169;-82
2021/07/13 12:26:55;;;;;;;0.80;0.80;;;15.70;99.90;;;;;;5028747;28;20174;-82
2021/07/13 12:29:33;;;;;;;1.77;0.63;;;15.70;99.90;;;;;;5046730;28;20190;-81
2021/07/13 12:32:01;;;;;;;2.07;1.10;;;15.60;99.90;;;;;;5047236;28;20178;-82
2021/07/13 12:34:39;;;;;;;1.23;0.87;;;15.50;99.90;;;;;;5029939;28;20205;-83
2021/07/13 12:37:22;;;;;;;1.10;0.90;;;15.50;99.90;;;;;;5048966;28;20166;-82
2021/07/13 12:40:04;;;;;;;3.23;0.80;;;15.40;99.90;;;;;;5071157;22;20298;-80
2021/07/13 12:42:36;;;;;;;1.70;1.00;;;15.50;99.90;;;;;;4978352;28;20198;-81
2021/07/13 12:45:12;;;;;;;1.33;0.73;;;15.60;99.90;;;;;;4977437;28;20165;-81
2021/07/13 12:48:04;;;;;;;2.30;1.13;;;15.60;99.90;;;;;;4981612;28;20650;-80
2021/07/13 12:50:31;;;;;;;0.70;0.70;;;15.60;99.90;;;;;;4988223;28;20214;-80
2021/07/13 12:53:03;;;;;;;1.37;0.93;;;15.70;99.90;;;;;;4996936;28;20243;-80
2021/07/13 12:55:45;;;;;;;1.27;0.90;;;15.60;99.90;;;;;;4993860;28;20265;-81
2021/07/13 12:58:10;;;;;;;1.03;0.80;;;15.50;99.90;;;;;;4994755;28;20194;-81